Portage, Michigan
Current Conditions -  °F | °C
As of 1:53 PM on Thursday 23 Oct 2014 (Local Time) from KAZO Reporting Station
Few Clouds Few Clouds  
Wind Chill: 55°   Ceiling: Unl
Heat Index: 55°   Visibility: 10mi
Dew Point: 42°   Wind: 8mph
Humidity: 62%   Direction: 200°SSW
Pressure: 30.19"   Gusts: NA
Location:  42.2°N, 85.59°W
Report Text: KAZO 231753Z 20007KT 10SM FEW022 13/06 A3019 RMK AO2 SLP230 T01280056 10128 20006 58020
Loading
Personal Weather Stations






























Interactive Weather Map
Tropical Storm Tracking
New forecast layout! Learn more

10-Day Weather Forecast

Advertisements
Track Severe Weather on mobile